Time;durP1;ratioP1;P1;durP2;ratioP2;P2;SDS_P1;SDS_P2;PMS_P1;PMS_P2;Temp;Humidity;BMP_temperature;BMP_pressure;BME280_temperature;BME280_humidity;BME280_pressure;Samples;Min_cycle;Max_cycle;Signal;HPM_P1;HPM_P2
2022/08/30 00:01:05;;;;;;;11.27;4.47;;;;;;;18.91;66.48;101946.56;5094258;28;20039;-63
2022/08/30 00:03:41;;;;;;;14.35;4.35;;;;;;;18.88;66.90;101946.59;5076266;28;20451;-64
2022/08/30 00:06:08;;;;;;;12.18;4.38;;;;;;;18.88;67.20;101941.22;5094361;28;20038;-64
2022/08/30 00:08:35;;;;;;;6.70;4.18;;;;;;;18.87;67.33;101935.88;5094203;28;20474;-63
2022/08/30 00:11:03;;;;;;;14.18;4.60;;;;;;;18.84;67.26;101930.53;5094276;28;20032;-64
2022/08/30 00:13:29;;;;;;;13.93;4.35;;;;;;;18.91;66.70;101934.97;5093518;28;20044;-64
2022/08/30 00:15:54;;;;;;;9.90;4.38;;;;;;;18.84;67.80;101934.09;5075944;28;20032;-64
2022/08/30 00:18:21;;;;;;;7.13;4.30;;;;;;;18.72;68.23;101943.13;5094124;28;20534;-63
2022/08/30 00:20:48;;;;;;;9.13;4.03;;;;;;;18.76;67.91;101938.66;5093882;28;20035;-63
2022/08/30 00:23:14;;;;;;;13.02;4.65;;;;;;;18.76;67.74;101934.19;5094217;28;20024;-64
2022/08/30 00:25:40;;;;;;;9.77;4.35;;;;;;;18.71;68.14;101935.09;5093901;28;20028;-64
2022/08/30 00:28:05;;;;;;;9.63;4.00;;;;;;;18.65;68.22;101940.44;5093828;28;20032;-64
2022/08/30 00:30:31;;;;;;;8.40;4.38;;;;;;;18.63;68.37;101940.47;5093795;28;20020;-63
2022/08/30 00:32:57;;;;;;;9.88;4.20;;;;;;;18.63;68.76;101944.91;5075560;28;20028;-63
2022/08/30 00:35:24;;;;;;;11.45;4.60;;;;;;;18.60;68.68;101928.88;5093644;28;20066;-63
2022/08/30 00:37:50;;;;;;;10.57;4.32;;;;;;;18.63;68.59;101937.78;5093590;28;20032;-64
2022/08/30 00:40:19;;;;;;;9.43;4.35;;;;;;;18.64;68.19;101938.69;5093793;28;20024;-65
2022/08/30 00:42:45;;;;;;;9.30;4.10;;;;;;;18.58;68.40;101939.56;5093531;28;20481;-64
2022/08/30 00:45:20;;;;;;;9.77;4.43;;;;;;;18.53;68.85;101942.28;5093922;28;20024;-64
2022/08/30 00:47:46;;;;;;;8.27;4.30;;;;;;;18.52;69.04;101939.63;5093422;28;20401;-64
2022/08/30 00:50:14;;;;;;;11.38;4.50;;;;;;;18.56;68.64;101941.38;5093412;28;20376;-64
2022/08/30 00:52:45;;;;;;;11.10;4.60;;;;;;;18.53;68.98;101942.28;5093715;28;20023;-64
2022/08/30 00:55:12;;;;;;;10.15;4.53;;;;;;;18.52;69.38;101935.16;5093422;28;20027;-64
2022/08/30 00:57:40;;;;;;;9.98;4.40;;;;;;;18.52;69.25;101934.25;5093597;28;20058;-64
2022/08/30 01:00:07;;;;;;;11.82;4.50;;;;;;;18.50;69.33;101942.31;5093095;28;20558;-65
2022/08/30 01:02:33;;;;;;;11.65;4.57;;;;;;;18.52;69.22;101939.63;5093208;28;20073;-63
2022/08/30 01:05:01;;;;;;;8.68;4.47;;;;;;;18.56;69.07;101941.38;5093322;28;20027;-64
2022/08/30 01:07:27;;;;;;;7.35;4.40;;;;;;;18.58;69.40;101952.97;5093199;28;20028;-63
2022/08/30 01:09:53;;;;;;;9.95;4.32;;;;;;;18.60;69.06;101950.28;5093340;28;20078;-64
2022/08/30 01:12:19;;;;;;;9.63;4.15;;;;;;;18.57;68.98;101942.28;5093149;28;20445;-64
2022/08/30 01:14:44;;;;;;;11.20;4.65;;;;;;;18.61;69.04;101949.38;5093125;28;20502;-64
2022/08/30 01:17:10;;;;;;;8.48;4.43;;;;;;;18.58;69.38;101952.97;5092955;28;20028;-64
2022/08/30 01:19:45;;;;;;;9.52;4.53;;;;;;;18.59;69.25;101954.75;5093200;28;20028;-64
2022/08/30 01:22:20;;;;;;;8.68;4.22;;;;;;;18.57;69.59;101958.34;5093082;28;20500;-63
2022/08/30 01:24:46;;;;;;;10.25;4.60;;;;;;;18.51;69.44;101952.13;5092999;28;20111;-63
2022/08/30 01:27:14;;;;;;;14.73;4.45;;;;;;;18.55;69.67;101955.69;5093168;28;20082;-63
2022/08/30 01:29:43;;;;;;;7.60;4.30;;;;;;;18.60;69.55;101955.66;5092789;28;20028;-64
2022/08/30 01:32:17;;;;;;;8.85;4.60;;;;;;;18.53;69.44;101962.81;5093138;28;20060;-63
2022/08/30 01:34:43;;;;;;;8.73;4.50;;;;;;;18.50;69.56;101962.84;5093073;28;20099;-64
2022/08/30 01:37:09;;;;;;;8.25;4.38;;;;;;;18.56;69.27;101961.91;5092855;28;20466;-63
2022/08/30 01:39:34;;;;;;;7.25;4.30;;;;;;;18.49;69.38;101958.34;5092905;28;20112;-65
2022/08/30 01:42:01;;;;;;;11.88;4.63;;;;;;;18.41;70.15;101949.47;5092795;28;20482;-64
2022/08/30 01:44:27;;;;;;;7.32;4.40;;;;;;;18.39;69.85;101946.81;5074750;28;20063;-64
2022/08/30 01:46:52;;;;;;;7.88;4.53;;;;;;;18.27;70.50;101942.38;5074666;28;20052;-64
2022/08/30 01:49:19;;;;;;;10.10;4.55;;;;;;;18.22;70.50;101941.50;5092999;28;20440;-64
2022/08/30 01:51:45;;;;;;;8.65;4.35;;;;;;;18.22;70.39;101949.53;5092843;28;20028;-63
2022/08/30 01:54:10;;;;;;;8.50;4.55;;;;;;;18.18;70.74;101944.22;5092878;28;20439;-64
2022/08/30 01:56:36;;;;;;;9.48;4.57;;;;;;;18.14;70.78;101945.13;5092903;28;20020;-64
2022/08/30 01:59:01;;;;;;;9.65;5.10;;;;;;;18.08;71.30;101945.16;5092519;28;20069;-64
2022/08/30 02:01:28;;;;;;;10.98;4.72;;;;;;;18.04;71.47;101954.06;5092737;28;20028;-64
2022/08/30 02:03:55;;;;;;;9.63;4.70;;;;;;;18.03;71.58;101953.19;5093028;28;20074;-63
2022/08/30 02:06:21;;;;;;;9.75;4.82;;;;;;;18.00;71.56;101948.72;5092765;28;20036;-64
2022/08/30 02:08:47;;;;;;;8.73;4.63;;;;;;;17.98;71.75;101952.28;5092578;28;20111;-64
2022/08/30 02:11:14;;;;;;;10.60;4.90;;;;;;;17.96;71.50;101949.63;5092655;28;20066;-64
2022/08/30 02:13:44;;;;;;;9.68;5.20;;;;;;;17.88;72.02;101943.38;5092470;28;20050;-64
2022/08/30 02:16:14;;;;;;;8.70;4.60;;;;;;;17.86;71.98;101936.25;5092768;28;20028;-64
2022/08/30 02:18:40;;;;;;;9.02;4.88;;;;;;;17.89;71.74;101937.13;5092602;28;20051;-64
2022/08/30 02:21:07;;;;;;;12.07;5.15;;;;;;;17.94;71.83;101938.03;5092757;28;20382;-64
2022/08/30 02:23:33;;;;;;;9.75;4.68;;;;;;;17.88;71.74;101935.38;5092591;28;20477;-64
2022/08/30 02:25:58;;;;;;;12.23;5.13;;;;;;;17.83;72.19;101929.16;5092386;28;20024;-64
2022/08/30 02:28:24;;;;;;;7.85;4.93;;;;;;;17.87;71.71;101938.06;5092527;28;20032;-63
2022/08/30 02:30:50;;;;;;;9.85;5.07;;;;;;;17.80;72.21;101949.66;5092396;28;20042;-64
2022/08/30 02:33:16;;;;;;;9.93;4.90;;;;;;;17.81;71.84;101949.63;5092553;28;20107;-63
2022/08/30 02:35:41;;;;;;;10.75;5.00;;;;;;;17.82;72.13;101937.19;5092392;28;20107;-64
2022/08/30 02:38:07;;;;;;;9.43;5.43;;;;;;;17.75;72.44;101925.59;5095659;28;20504;-63
2022/08/30 02:40:33;;;;;;;8.27;4.95;;;;;;;17.71;72.65;101935.34;5095865;28;20024;-64
2022/08/30 02:42:58;;;;;;;8.70;5.40;;;;;;;17.69;72.50;101929.13;5095915;28;20547;-63
2022/08/30 02:45:25;;;;;;;9.40;5.10;;;;;;;17.67;72.56;101938.03;5095991;28;20054;-65
2022/08/30 02:47:51;;;;;;;10.20;4.85;;;;;;;17.64;72.67;101935.34;5095958;28;20028;-64
2022/08/30 02:50:16;;;;;;;8.82;5.38;;;;;;;17.65;72.38;101937.16;5095921;28;20035;-64
2022/08/30 02:52:42;;;;;;;7.78;5.20;;;;;;;17.62;72.97;101937.16;5116663;22;20067;-60
2022/08/30 02:55:08;;;;;;;7.75;5.03;;;;;;;17.61;72.61;101943.41;5096032;28;20055;-60
2022/08/30 02:57:34;;;;;;;10.88;5.30;;;;;;;17.61;73.04;101930.03;5095414;28;20054;-60
2022/08/30 03:00:00;;;;;;;6.72;5.00;;;;;;;17.56;73.16;101929.13;5095478;28;20469;-60
2022/08/30 03:02:26;;;;;;;9.52;5.57;;;;;;;17.57;73.10;101929.16;5077564;28;20093;-60
2022/08/30 03:04:52;;;;;;;8.93;5.35;;;;;;;17.52;73.37;101917.56;5095566;28;20530;-60
2022/08/30 03:07:18;;;;;;;8.38;5.22;;;;;;;17.52;73.36;101910.44;5095555;28;20092;-60
2022/08/30 03:09:44;;;;;;;8.40;5.22;;;;;;;17.47;73.24;101912.22;5095174;28;20066;-61
2022/08/30 03:12:12;;;;;;;8.85;4.97;;;;;;;17.47;73.44;101912.22;5077446;28;20061;-60
2022/08/30 03:14:38;;;;;;;10.52;5.53;;;;;;;17.44;73.37;101914.00;5095370;28;20028;-60
2022/08/30 03:17:05;;;;;;;11.27;5.68;;;;;;;17.45;73.25;101919.34;5095299;28;20031;-61
2022/08/30 03:19:31;;;;;;;10.77;5.13;;;;;;;17.46;73.10;101914.88;5095103;28;20035;-60
2022/08/30 03:21:57;;;;;;;9.13;5.25;;;;;;;17.42;73.23;101911.31;5077187;28;20039;-60
2022/08/30 03:24:22;;;;;;;7.97;5.38;;;;;;;17.43;73.22;101915.81;5095187;28;20393;-60
2022/08/30 03:26:48;;;;;;;8.10;5.65;;;;;;;17.46;73.25;101915.78;5095095;28;20103;-60
2022/08/30 03:29:13;;;;;;;10.25;5.55;;;;;;;17.45;73.36;101922.03;5095024;28;20504;-60
2022/08/30 03:31:39;;;;;;;12.50;5.75;;;;;;;17.42;73.44;101924.69;5095132;28;20074;-60
2022/08/30 03:34:04;;;;;;;8.10;5.50;;;;;;;17.48;73.27;101924.69;5095208;28;20032;-60
2022/08/30 03:36:30;;;;;;;8.45;5.72;;;;;;;17.45;73.27;101922.03;5094992;28;20101;-60
2022/08/30 03:38:56;;;;;;;9.60;5.35;;;;;;;17.52;73.16;101928.25;5060225;28;20036;-60
2022/08/30 03:41:23;;;;;;;8.00;5.63;;;;;;;17.55;72.89;101930.03;5095036;28;20028;-60
2022/08/30 03:43:48;;;;;;;10.05;5.30;;;;;;;17.56;72.93;101930.03;5094593;28;20036;-60
2022/08/30 03:46:14;;;;;;;9.02;5.78;;;;;;;17.55;72.97;101922.91;5094836;28;20032;-60
2022/08/30 03:48:39;;;;;;;8.57;5.68;;;;;;;17.55;73.28;101916.66;5093623;28;20469;-60
2022/08/30 03:51:05;;;;;;;10.98;5.75;;;;;;;17.51;72.91;101921.13;5094732;28;20035;-60
2022/08/30 03:53:30;;;;;;;9.77;6.10;;;;;;;17.52;72.97;101925.59;5094020;28;20112;-61
2022/08/30 03:55:56;;;;;;;12.25;5.70;;;;;;;17.48;72.99;101924.69;5094727;28;20542;-60
2022/08/30 03:58:22;;;;;;;9.65;5.72;;;;;;;17.49;73.17;101925.59;5094423;28;20028;-60
2022/08/30 04:00:47;;;;;;;8.70;5.68;;;;;;;17.44;73.22;101927.38;5094332;28;20036;-60
2022/08/30 04:03:13;;;;;;;10.68;6.13;;;;;;;17.38;73.51;101924.69;5094361;28;20054;-60
2022/08/30 04:05:38;;;;;;;9.85;5.97;;;;;;;17.38;73.15;101922.91;5094508;28;20484;-60
2022/08/30 04:08:04;;;;;;;8.93;6.10;;;;;;;17.32;73.63;101922.91;5076051;28;20024;-60
2022/08/30 04:10:30;;;;;;;10.88;5.75;;;;;;;17.28;73.55;101927.38;5094296;28;20025;-60
2022/08/30 04:12:56;;;;;;;8.93;6.10;;;;;;;17.25;73.90;101926.47;5094437;28;20111;-60
2022/08/30 04:15:21;;;;;;;9.25;6.38;;;;;;;17.23;74.00;101922.91;5094095;28;20082;-60
2022/08/30 04:17:47;;;;;;;9.88;6.70;;;;;;;17.19;74.27;101926.47;5076077;28;20042;-60
2022/08/30 04:20:13;;;;;;;10.70;6.88;;;;;;;17.20;74.05;101925.56;5094013;28;20431;-60
2022/08/30 04:22:38;;;;;;;8.18;6.88;;;;;;;17.14;74.47;101923.81;5094000;28;20050;-60
2022/08/30 04:25:05;;;;;;;8.80;6.90;;;;;;;17.17;74.09;101930.91;5075832;28;20032;-60
2022/08/30 04:27:31;;;;;;;10.32;6.68;;;;;;;17.14;74.32;101926.47;5093770;28;20023;-60
2022/08/30 04:29:58;;;;;;;9.52;6.50;;;;;;;17.13;74.41;101938.06;5093757;28;20081;-59
2022/08/30 04:32:23;;;;;;;14.10;6.63;;;;;;;17.07;74.69;101934.47;5094060;28;20024;-60
2022/08/30 04:34:49;;;;;;;10.02;6.85;;;;;;;16.97;75.01;101933.56;5093857;28;20047;-60
2022/08/30 04:37:15;;;;;;;13.43;7.32;;;;;;;16.95;74.85;101935.31;5093536;28;20111;-60
2022/08/30 04:39:42;;;;;;;11.90;6.82;;;;;;;16.91;75.23;101933.53;5093795;28;20032;-60
2022/08/30 04:42:10;;;;;;;9.13;6.63;;;;;;;16.93;75.13;101942.47;5093568;28;20036;-60
2022/08/30 04:44:35;;;;;;;11.15;7.20;;;;;;;16.95;75.02;101938.88;5093532;28;20503;-61
2022/08/30 04:47:01;;;;;;;8.77;7.25;;;;;;;16.96;75.12;101942.47;5093531;28;20055;-60
2022/08/30 04:49:26;;;;;;;8.90;6.78;;;;;;;16.96;75.01;101946.03;5093508;28;20036;-60
2022/08/30 04:54:42;;;;;;;12.93;7.13;;;;;;;16.92;75.21;101948.69;5126433;22;20060;-60
2022/08/30 04:57:07;;;;;;;10.52;7.20;;;;;;;16.92;75.50;101951.38;5093540;28;20503;-60
2022/08/30 04:59:33;;;;;;;13.70;7.18;;;;;;;16.87;75.73;101947.78;5092746;28;20026;-60
2022/08/30 05:01:59;;;;;;;10.32;7.43;;;;;;;16.85;75.55;101955.78;5075308;28;20028;-60
2022/08/30 05:04:24;;;;;;;12.38;7.70;;;;;;;16.82;75.66;101955.75;5075111;28;20043;-61
2022/08/30 05:06:49;;;;;;;10.32;7.95;;;;;;;16.85;75.70;101953.13;5093490;28;20430;-60
2022/08/30 05:09:15;;;;;;;10.15;7.45;;;;;;;16.85;75.79;101952.22;5093456;28;20500;-60
2022/08/30 05:11:42;;;;;;;9.18;7.85;;;;;;;16.81;75.79;101954.00;5093231;28;20381;-60
2022/08/30 05:14:07;;;;;;;11.50;7.90;;;;;;;16.82;75.72;101963.78;5093210;28;20036;-61
2022/08/30 05:16:33;;;;;;;10.95;7.72;;;;;;;16.83;75.68;101962.00;5093334;28;20035;-60
2022/08/30 05:18:59;;;;;;;9.85;7.85;;;;;;;16.81;75.96;101959.34;5075144;28;20028;-61
2022/08/30 05:21:25;;;;;;;11.85;8.27;;;;;;;16.82;75.96;101957.56;5092933;28;20028;-60
2022/08/30 05:23:56;;;;;;;10.15;7.40;;;;;;;16.86;75.86;101962.91;5093264;28;20024;-60
2022/08/30 05:26:28;;;;;;;11.77;8.10;;;;;;;16.80;76.03;101960.22;5093322;28;20031;-60
2022/08/30 05:28:54;;;;;;;11.35;8.20;;;;;;;16.83;76.08;101967.34;5093165;28;20034;-60
2022/08/30 05:31:23;;;;;;;12.30;8.13;;;;;;;16.83;76.00;101965.59;5092855;28;20111;-60
2022/08/30 05:33:51;;;;;;;12.68;8.65;;;;;;;16.90;75.77;101978.03;5075705;28;20753;-60
2022/08/30 05:36:18;;;;;;;9.75;7.82;;;;;;;16.96;75.56;101975.41;5092890;28;20032;-60
2022/08/30 05:38:44;;;;;;;17.40;8.15;;;;;;;16.98;75.45;101978.06;5093025;28;20032;-60
2022/08/30 05:41:10;;;;;;;9.70;7.93;;;;;;;17.00;75.39;101974.53;5092943;28;20107;-60
2022/08/30 05:43:36;;;;;;;12.77;9.07;;;;;;;16.94;75.66;101978.94;5092875;28;20123;-60
2022/08/30 05:46:05;;;;;;;14.57;8.98;;;;;;;16.95;76.10;101973.59;5092791;28;20021;-61
2022/08/30 05:48:31;;;;;;;9.85;8.40;;;;;;;16.99;75.73;101977.16;5092949;28;20025;-60
2022/08/30 05:51:05;;;;;;;14.23;9.05;;;;;;;16.98;76.04;101976.28;5074689;28;20032;-60
2022/08/30 05:53:31;;;;;;;13.30;9.05;;;;;;;16.99;75.77;101977.16;5092891;28;20103;-60
2022/08/30 05:55:56;;;;;;;11.20;9.23;;;;;;;17.08;75.66;101974.53;5056036;28;20508;-60
2022/08/30 05:58:22;;;;;;;15.32;9.50;;;;;;;17.20;75.25;101981.66;5072594;28;20033;-60
2022/08/30 06:00:47;;;;;;;12.73;9.48;;;;;;;17.29;74.97;101973.66;5072209;28;20487;-61
2022/08/30 06:03:13;;;;;;;14.60;9.50;;;;;;;17.33;74.61;101977.22;5072445;28;20025;-60
2022/08/30 06:05:38;;;;;;;10.95;9.20;;;;;;;17.43;74.43;101976.34;5072549;28;20477;-60
2022/08/30 06:08:03;;;;;;;10.77;9.05;;;;;;;17.54;74.19;101966.56;5072784;28;20078;-60
2022/08/30 06:10:29;;;;;;;11.77;8.88;;;;;;;17.68;73.88;101979.91;5072368;28;20474;-60
2022/08/30 06:12:54;;;;;;;12.13;9.27;;;;;;;17.74;72.74;101983.53;5075463;28;20032;-60
2022/08/30 06:15:20;;;;;;;15.95;9.35;;;;;;;17.86;72.86;101984.38;5076026;28;20029;-61
2022/08/30 06:17:47;;;;;;;11.82;9.00;;;;;;;17.96;72.32;101992.41;5076102;28;20025;-61
2022/08/30 06:20:13;;;;;;;11.90;9.00;;;;;;;18.15;72.00;101981.66;5058102;28;20029;-60
2022/08/30 06:22:38;;;;;;;12.75;9.60;;;;;;;18.30;70.96;101981.63;5076056;28;20035;-61
2022/08/30 06:25:04;;;;;;;10.70;8.73;;;;;;;18.43;70.62;101983.38;5075813;28;20111;-60
2022/08/30 06:27:30;;;;;;;11.43;8.93;;;;;;;18.52;70.24;101974.41;5058021;28;20025;-60
2022/08/30 06:29:55;;;;;;;16.80;9.25;;;;;;;18.58;69.23;101979.72;5041194;28;20039;-61
2022/08/30 06:32:21;;;;;;;13.70;8.55;;;;;;;18.65;69.25;101972.56;5075796;28;20040;-61
2022/08/30 06:34:47;;;;;;;12.43;8.90;;;;;;;18.81;69.37;101978.78;5075914;28;20033;-61
2022/08/30 06:37:12;;;;;;;12.50;9.02;;;;;;;18.99;68.88;101974.22;5075686;28;20040;-61
2022/08/30 06:39:38;;;;;;;14.10;8.75;;;;;;;19.16;68.06;101975.91;5075855;28;20473;-60
2022/08/30 06:42:03;;;;;;;10.07;8.48;;;;;;;19.31;67.67;101972.19;5075619;28;20032;-61
2022/08/30 06:44:29;;;;;;;10.32;8.32;;;;;;;19.43;66.71;101969.44;5057570;28;20078;-61
2022/08/30 06:46:54;;;;;;;10.73;8.15;;;;;;;19.60;66.14;101978.22;5075866;28;20032;-61
2022/08/30 06:49:20;;;;;;;12.88;8.40;;;;;;;19.73;65.16;101974.56;5075453;28;20067;-61
2022/08/30 06:51:45;;;;;;;9.93;7.78;;;;;;;19.86;64.87;101972.66;5075564;28;20035;-61
2022/08/30 06:54:11;;;;;;;12.23;7.72;;;;;;;19.88;64.01;101968.19;5056605;28;20114;-61
2022/08/30 06:56:37;;;;;;;11.00;7.70;;;;;;;19.91;64.13;101964.56;5095244;28;20036;-60
2022/08/30 06:59:03;;;;;;;10.40;7.20;;;;;;;19.99;63.91;101968.06;5094911;28;20385;-61
2022/08/30 07:01:29;;;;;;;12.73;7.40;;;;;;;20.02;63.15;101962.66;5094516;28;20119;-61
2022/08/30 07:03:55;;;;;;;11.18;7.07;;;;;;;20.27;63.01;101972.22;5094745;28;20036;-61
2022/08/30 07:06:22;;;;;;;10.73;7.45;;;;;;;20.43;62.10;101972.06;5100081;28;20047;-60
2022/08/30 07:08:51;;;;;;;13.15;7.38;;;;;;;20.42;62.20;101973.84;5099995;28;20503;-61
2022/08/30 07:11:30;;;;;;;9.30;6.78;;;;;;;20.61;61.51;101968.28;5077680;28;20035;-60
2022/08/30 07:13:56;;;;;;;12.32;6.72;;;;;;;20.73;61.30;101974.38;5095735;28;20032;-60
2022/08/30 07:16:21;;;;;;;8.57;6.65;;;;;;;20.63;60.67;101974.50;5094585;28;20575;-61
2022/08/30 07:18:50;;;;;;;10.73;6.90;;;;;;;20.65;60.60;101976.28;5096919;28;20024;-60
2022/08/30 07:21:19;;;;;;;9.70;6.18;;;;;;;20.81;60.40;101987.69;5076928;28;20035;-60
2022/08/30 07:23:47;;;;;;;11.50;6.45;;;;;;;20.85;60.03;101986.75;5094398;28;20427;-60
2022/08/30 07:26:16;;;;;;;9.48;6.50;;;;;;;21.04;59.64;101987.41;5095064;28;20358;-61
2022/08/30 07:28:44;;;;;;;10.55;6.40;;;;;;;21.17;59.67;101990.78;5095378;28;20020;-62
2022/08/30 07:31:11;;;;;;;8.30;6.53;;;;;;;21.41;58.47;101987.75;5098910;28;20436;-61
2022/08/30 07:33:39;;;;;;;8.88;6.32;;;;;;;21.61;58.26;101991.91;5096566;28;20062;-60
2022/08/30 07:36:05;;;;;;;9.10;6.20;;;;;;;21.79;57.23;101988.91;5094838;28;20032;-61
2022/08/30 07:38:31;;;;;;;13.18;6.07;;;;;;;21.91;56.82;101991.38;5122088;22;20036;-62
2022/08/30 07:41:00;;;;;;;8.15;6.03;;;;;;;21.98;56.16;101998.44;5092970;28;20462;-60
2022/08/30 07:43:27;;;;;;;8.48;6.07;;;;;;;21.96;56.02;101986.78;5106104;22;20059;-82
2022/08/30 07:45:52;;;;;;;7.68;6.05;;;;;;;21.97;56.07;101991.28;5063333;28;20037;-83
2022/08/30 07:48:18;;;;;;;7.38;6.05;;;;;;;22.07;56.42;101981.22;5063718;28;20354;-84
2022/08/30 07:53:18;;;;;;;7.28;5.70;;;;;;;22.33;54.51;101996.91;3242452;22;20062;-62
2022/08/30 07:58:19;;;;;;;8.35;5.90;;;;;;;22.44;54.30;101993.97;4503009;23;20056;-83
2022/08/30 08:03:20;;;;;;;9.13;5.97;;;;;;;22.43;54.49;101987.72;4522908;22;20059;-89
2022/08/30 08:05:45;;;;;;;11.77;6.15;;;;;;;22.47;54.64;101993.94;5120433;28;20038;-89
2022/08/30 08:08:12;;;;;;;12.77;6.13;;;;;;;22.36;54.82;101995.97;5120172;28;20119;-87
2022/08/30 08:10:40;;;;;;;7.07;5.85;;;;;;;22.27;54.41;101990.75;5120374;28;20389;-88
2022/08/30 08:13:06;;;;;;;7.40;5.30;;;;;;;22.49;54.92;102003.75;5116249;28;20416;-88
2022/08/30 08:15:31;;;;;;;11.77;5.68;;;;;;;22.55;53.80;101989.28;5120167;28;20526;-86
2022/08/30 08:17:57;;;;;;;7.35;5.60;;;;;;;22.51;54.08;101987.56;5119109;28;20453;-88
2022/08/30 08:20:23;;;;;;;13.18;5.40;;;;;;;22.70;54.06;102005.13;5121656;28;20039;-86
2022/08/30 08:22:49;;;;;;;13.70;5.00;;;;;;;22.85;53.34;102003.00;5124125;28;20038;-85
2022/08/30 08:25:14;;;;;;;8.02;4.80;;;;;;;22.99;52.43;102006.31;5118716;28;20459;-85
2022/08/30 08:27:40;;;;;;;8.60;5.30;;;;;;;23.02;52.80;102003.56;5118758;28;20524;-87
2022/08/30 08:30:06;;;;;;;8.75;4.57;;;;;;;23.11;52.04;102003.34;5119481;28;20053;-86
2022/08/30 08:32:31;;;;;;;11.88;4.80;;;;;;;23.08;52.23;102011.50;5094761;28;20039;-81
2022/08/30 08:34:56;;;;;;;8.95;5.03;;;;;;;23.28;51.97;102007.47;5117310;28;20038;-79
2022/08/30 08:37:22;;;;;;;8.23;4.63;;;;;;;23.37;51.29;101994.63;5116948;28;20038;-81
2022/08/30 08:39:47;;;;;;;9.43;4.72;;;;;;;23.26;51.17;102001.25;5114085;28;20032;-78
2022/08/30 08:42:20;;;;;;;7.28;4.25;;;;;;;23.40;50.87;102007.19;5114343;28;20534;-79
2022/08/30 08:44:52;;;;;;;7.90;4.40;;;;;;;23.39;50.70;102006.28;5114258;28;20063;-78
2022/08/30 08:47:28;;;;;;;7.45;4.32;;;;;;;23.37;51.65;102005.44;5114426;28;20036;-91
2022/08/30 08:49:58;;;;;;;7.80;4.05;;;;;;;23.21;51.25;102004.94;5113004;28;20107;-85
2022/08/30 08:55:17;;;;;;;8.38;4.10;;;;;;;23.60;50.12;102021.09;5113953;28;20047;-85
2022/08/30 08:57:43;;;;;;;5.60;3.65;;;;;;;23.73;50.00;102016.28;5114190;28;20019;-84
2022/08/30 09:00:11;;;;;;;4.63;3.80;;;;;;;23.94;49.63;102009.47;5113993;28;20027;-85
2022/08/30 09:02:46;;;;;;;9.25;4.00;;;;;;;24.19;49.38;102013.25;5112671;28;20052;-86
2022/08/30 09:05:19;;;;;;;6.45;4.22;;;;;;;24.40;48.29;102017.19;5114071;28;20465;-85
2022/08/30 09:07:51;;;;;;;12.65;4.20;;;;;;;24.58;48.08;101995.97;5112620;28;20028;-86
2022/08/30 09:10:17;;;;;;;9.82;4.00;;;;;;;25.04;46.79;102011.72;5112706;28;20016;-86
2022/08/30 09:12:43;;;;;;;5.80;3.83;;;;;;;25.40;45.45;102008.81;5095341;28;20031;-88
2022/08/30 09:15:22;;;;;;;9.13;4.03;;;;;;;25.76;45.32;102000.41;5113262;28;20027;-81
2022/08/30 09:17:57;;;;;;;9.18;3.65;;;;;;;25.97;43.97;102013.22;5113676;28;20575;-81
2022/08/30 09:20:29;;;;;;;4.50;3.20;;;;;;;26.13;42.85;102006.34;5114046;28;20035;-89
2022/08/30 09:22:54;;;;;;;9.98;3.55;;;;;;;26.22;42.13;101991.56;5112371;28;20024;-82
2022/08/30 09:25:31;;;;;;;8.10;3.40;;;;;;;26.52;43.01;101997.72;5112015;28;20032;-79
2022/08/30 09:28:12;;;;;;;5.95;3.60;;;;;;;26.62;42.03;102000.94;5113708;28;20126;-81
2022/08/30 09:30:38;;;;;;;11.65;3.42;;;;;;;26.60;41.26;101997.44;5113643;28;20025;-78
2022/08/30 09:33:17;;;;;;;11.10;3.60;;;;;;;26.69;40.93;101994.38;5113541;28;20465;-78
2022/08/30 09:35:51;;;;;;;6.60;3.45;;;;;;;26.73;40.56;101998.72;5112289;28;20427;-84
2022/08/30 09:38:34;;;;;;;11.18;3.75;;;;;;;26.91;41.28;101998.00;5113472;28;20024;-87
2022/08/30 09:41:21;;;;;;;9.25;3.45;;;;;;;27.10;40.59;102002.72;5113820;28;20024;-79
2022/08/30 09:44:13;;;;;;;6.88;3.53;;;;;;;27.32;40.44;102008.16;5113481;28;20050;-86
2022/08/30 09:46:51;;;;;;;6.63;3.28;;;;;;;27.34;40.11;102003.56;5119774;28;20039;-85
2022/08/30 09:49:31;;;;;;;7.05;3.30;;;;;;;27.41;40.12;102005.09;5117546;28;20027;-82
2022/08/30 09:52:33;;;;;;;5.07;3.20;;;;;;;27.45;40.48;101999.47;5117615;28;20040;-83
2022/08/30 09:55:30;;;;;;;6.22;3.03;;;;;;;27.74;40.18;102004.66;5117572;28;20491;-84
2022/08/30 09:58:08;;;;;;;8.32;3.10;;;;;;;27.78;38.42;102004.44;5117546;28;20103;-84
2022/08/30 10:00:46;;;;;;;6.70;2.95;;;;;;;27.65;38.41;102000.47;5115949;28;20028;-83
2022/08/30 10:03:25;;;;;;;8.18;2.90;;;;;;;27.84;39.21;102001.50;5117464;28;20086;-77
2022/08/30 10:06:01;;;;;;;4.88;2.70;;;;;;;27.85;36.99;102003.25;5117459;28;20080;-78
2022/08/30 10:08:57;;;;;;;6.90;2.85;;;;;;;27.74;37.36;102001.94;5117538;28;20040;-82
2022/08/30 10:11:38;;;;;;;5.07;2.45;;;;;;;27.55;37.91;101999.09;5117192;28;20085;-84
2022/08/30 10:14:22;;;;;;;4.10;2.80;;;;;;;27.45;37.60;101998.56;5117348;28;20028;-86
2022/08/30 10:17:03;;;;;;;6.63;2.80;;;;;;;27.57;38.08;101999.91;5117076;28;20121;-84
2022/08/30 10:20:06;;;;;;;5.35;2.70;;;;;;;27.76;37.40;102011.78;5117167;28;20046;-84
2022/08/30 10:23:10;;;;;;;9.32;2.90;;;;;;;27.93;37.96;101995.66;5116866;28;20362;-85
2022/08/30 10:25:47;;;;;;;6.18;2.60;;;;;;;28.03;37.26;101990.69;5114441;28;20044;-87
2022/08/30 10:28:20;;;;;;;3.95;2.60;;;;;;;27.91;36.02;101989.38;5116784;28;20045;-80
2022/08/30 10:31:12;;;;;;;3.95;2.70;;;;;;;28.10;36.90;101977.72;5116868;28;20028;-84
2022/08/30 10:33:45;;;;;;;7.28;2.60;;;;;;;28.19;36.87;101983.63;5116745;28;20458;-83
2022/08/30 10:36:13;;;;;;;5.05;2.53;;;;;;;28.40;35.53;101976.34;5115435;28;20039;-85
2022/08/30 10:38:45;;;;;;;7.28;2.60;;;;;;;28.52;35.75;101985.75;5116813;28;20055;-79
2022/08/30 10:41:27;;;;;;;9.98;2.90;;;;;;;28.65;35.72;101984.25;5116593;28;20098;-78
2022/08/30 10:44:01;;;;;;;;;;;;;;;28.89;34.65;101984.03;5117313;28;20035;-82
2022/08/30 10:46:40;;;;;;;5.18;2.50;;;;;;;28.85;34.98;101985.13;5116478;28;19976;-83
2022/08/30 10:49:14;;;;;;;5.40;2.63;;;;;;;28.85;35.01;101983.28;5116608;28;20023;-84
2022/08/30 10:52:16;;;;;;;8.00;2.58;;;;;;;29.31;34.67;101982.94;5115467;28;20389;-85
2022/08/30 10:54:45;;;;;;;9.70;2.40;;;;;;;29.43;33.96;101987.78;5116657;28;20020;-82
2022/08/30 10:57:11;;;;;;;6.65;2.53;;;;;;;29.05;33.41;101979.66;5115524;28;20027;-83
2022/08/30 10:59:44;;;;;;;7.43;2.70;;;;;;;29.13;33.62;101980.16;5116647;28;20107;-83
2022/08/30 11:02:29;;;;;;;4.88;2.50;;;;;;;28.92;34.50;101963.00;5116384;28;20043;-85
2022/08/30 11:05:30;;;;;;;5.68;2.40;;;;;;;29.08;34.10;101975.88;5115118;28;20035;-85
2022/08/30 11:08:16;;;;;;;5.43;2.40;;;;;;;29.32;33.26;101985.56;5116397;28;20095;-80
2022/08/30 11:10:57;;;;;;;8.40;2.63;;;;;;;29.39;33.05;101967.97;5116167;28;20028;-82
2022/08/30 11:13:26;;;;;;;4.43;2.50;;;;;;;29.31;33.22;101969.31;5115962;28;20088;-81
2022/08/30 11:15:56;;;;;;;4.93;2.60;;;;;;;29.46;33.29;101973.97;5115770;28;20024;-80
2022/08/30 11:18:23;;;;;;;6.05;2.40;;;;;;;29.76;32.79;101971.56;5115970;28;20023;-83
2022/08/30 11:20:52;;;;;;;8.20;2.67;;;;;;;29.61;32.82;101970.53;5116082;28;20031;-82
2022/08/30 11:23:17;;;;;;;6.45;2.50;;;;;;;29.62;32.38;101974.13;5115762;28;20032;-79
2022/08/30 11:25:50;;;;;;;5.18;2.55;;;;;;;29.54;32.92;101963.59;5115689;28;20030;-79
2022/08/30 11:28:34;;;;;;;9.40;2.53;;;;;;;29.89;33.03;101969.06;5115777;28;20433;-78
2022/08/30 11:31:22;;;;;;;8.52;2.63;;;;;;;29.85;32.84;101965.66;5115616;28;20031;-81
2022/08/30 11:33:57;;;;;;;6.10;2.70;;;;;;;29.66;32.20;101962.13;5102041;28;20035;-79
2022/08/30 11:36:29;;;;;;;6.53;2.75;;;;;;;29.72;32.03;101969.94;5115525;28;20042;-80
2022/08/30 11:38:54;;;;;;;6.55;2.50;;;;;;;29.62;32.45;101969.56;5115762;28;20445;-78
2022/08/30 11:41:42;;;;;;;4.40;2.60;;;;;;;29.59;32.81;101953.41;5115371;28;20061;-78
2022/08/30 11:44:25;;;;;;;7.15;2.70;;;;;;;29.58;32.47;101962.50;5115624;28;20035;-79